createdAt,value
2022-08-25T00:00:23.677Z,2.400
2022-08-25T00:01:21.727Z,2.700
2022-08-25T00:02:31.182Z,2.350
2022-08-25T00:03:26.186Z,2.450
2022-08-25T00:04:21.773Z,3.000
2022-08-25T00:05:32.195Z,2.400
2022-08-25T00:06:23.091Z,2.550
2022-08-25T00:07:25.564Z,2.800
2022-08-25T00:08:19.663Z,3.600
2022-08-25T00:09:30.621Z,3.550
2022-08-25T00:10:20.727Z,3.500
2022-08-25T00:11:22.300Z,3.750
2022-08-25T00:12:31.957Z,3.400
2022-08-25T00:13:28.912Z,4.100
2022-08-25T00:14:26.146Z,3.800
2022-08-25T00:15:19.613Z,4.750
2022-08-25T00:16:25.688Z,6.000
2022-08-25T00:17:25.490Z,5.400
2022-08-25T00:18:22.783Z,5.250
2022-08-25T00:20:37.998Z,5.050
2022-08-25T00:20:48.748Z,4.400
2022-08-25T00:21:29.489Z,4.500
2022-08-25T00:22:19.966Z,4.300
2022-08-25T00:23:29.936Z,3.900
2022-08-25T00:24:23.233Z,4.700
2022-08-25T00:25:26.572Z,4.250
2022-08-25T00:26:36.796Z,3.400
2022-08-25T00:27:22.594Z,3.550
2022-08-25T00:28:27.224Z,3.600
2022-08-25T00:29:19.616Z,3.450
2022-08-25T00:30:33.892Z,3.100
2022-08-25T00:31:38.904Z,3.550
2022-08-25T00:32:21.436Z,3.500
2022-08-25T00:33:29.428Z,3.550
2022-08-25T00:34:27.792Z,3.700
2022-08-25T00:35:20.666Z,3.000
2022-08-25T00:36:19.434Z,3.350
2022-08-25T00:37:20.828Z,2.950
2022-08-25T00:38:23.220Z,3.000
2022-08-25T00:39:21.417Z,2.850
2022-08-25T00:40:31.717Z,2.800
2022-08-25T00:41:29.043Z,2.800
2022-08-25T00:42:23.836Z,2.750
2022-08-25T00:43:19.417Z,2.600
2022-08-25T00:44:25.954Z,2.700
2022-08-25T00:45:25.815Z,2.700
2022-08-25T00:46:21.874Z,3.000
2022-08-25T00:47:33.018Z,3.450
2022-08-25T00:48:30.875Z,3.300
2022-08-25T00:49:26.327Z,3.300
2022-08-25T00:50:21.195Z,3.550
2022-08-25T00:51:29.731Z,3.500
2022-08-25T00:52:22.853Z,3.100
2022-08-25T00:53:21.814Z,2.950
2022-08-25T00:54:33.947Z,3.050
2022-08-25T00:55:24.551Z,3.100
2022-08-25T00:56:26.612Z,3.000
2022-08-25T00:57:22.182Z,3.000
2022-08-25T00:58:31.792Z,2.750
2022-08-25T00:59:27.471Z,2.800
2022-08-25T01:00:37.072Z,2.800
2022-08-25T01:01:39.925Z,3.350
2022-08-25T01:02:30.595Z,2.850
2022-08-25T01:03:39.718Z,2.700
2022-08-25T01:46:21.910Z,2.650
2022-08-25T01:47:24.696Z,2.600
2022-08-25T01:48:28.438Z,2.700
2022-08-25T01:49:29.902Z,2.600
2022-08-25T01:50:58.142Z,2.950
2022-08-25T01:52:07.031Z,3.200
2022-08-25T01:52:32.961Z,3.050
2022-08-25T01:53:20.276Z,2.700
2022-08-25T01:54:30.727Z,2.900
2022-08-25T02:32:38.651Z,3.700
2022-08-25T02:33:31.400Z,4.100
2022-08-25T02:34:39.439Z,3.800
2022-08-25T02:35:21.730Z,3.550
2022-08-25T02:36:20.983Z,3.850
2022-08-25T02:37:31.848Z,3.650
2022-08-25T02:38:23.404Z,3.400
2022-08-25T02:39:31.766Z,3.600
2022-08-25T02:40:32.015Z,3.450
2022-08-25T02:41:31.019Z,3.700
2022-08-25T02:42:23.320Z,3.800
2022-08-25T02:43:33.799Z,3.650
2022-08-25T02:44:25.802Z,3.800
2022-08-25T02:45:25.654Z,3.650
2022-08-25T02:46:31.703Z,3.250
2022-08-25T02:47:28.638Z,3.500
2022-08-25T02:48:23.835Z,3.500
2022-08-25T02:49:22.152Z,3.100
2022-08-25T02:50:31.394Z,3.450
2022-08-25T02:51:29.142Z,3.000
2022-08-25T02:52:24.543Z,3.300
2022-08-25T02:53:22.036Z,3.050
2022-08-25T02:54:28.981Z,3.200
2022-08-25T02:55:23.817Z,2.800
2022-08-25T02:56:23.545Z,3.250
2022-08-25T02:57:31.187Z,3.050
2022-08-25T02:58:25.567Z,2.900
2022-08-25T02:59:24.925Z,2.950
2022-08-25T03:00:25.755Z,3.100
2022-08-25T03:01:29.194Z,2.800
2022-08-25T03:02:23.674Z,2.800
2022-08-25T03:03:20.692Z,2.850
2022-08-25T03:04:31.367Z,2.950
2022-08-25T03:05:25.675Z,2.900
2022-08-25T03:06:21.769Z,2.650
2022-08-25T03:07:32.083Z,3.000
2022-08-25T03:08:24.293Z,3.100
2022-08-25T03:09:26.074Z,2.800
2022-08-25T03:10:24.005Z,2.800
2022-08-25T03:11:31.449Z,2.800
2022-08-25T03:12:28.756Z,2.800
2022-08-25T03:13:23.173Z,2.600
2022-08-25T03:14:25.186Z,2.850
2022-08-25T03:15:30.541Z,2.900
2022-08-25T03:16:28.067Z,2.800
2022-08-25T03:17:21.862Z,3.000
2022-08-25T03:18:35.462Z,2.650
2022-08-25T03:19:25.627Z,2.950
2022-08-25T03:20:26.700Z,2.800
2022-08-25T03:21:23.775Z,2.700
2022-08-25T03:22:31.387Z,2.600
2022-08-25T03:23:23.658Z,2.750
2022-08-25T03:24:21.000Z,2.800
2022-08-25T03:25:24.347Z,2.800
2022-08-25T03:26:25.377Z,2.650
2022-08-25T03:27:25.477Z,2.600
2022-08-25T03:28:30.020Z,2.500
2022-08-25T03:29:27.872Z,2.700
2022-08-25T03:30:24.924Z,2.600
2022-08-25T03:31:20.638Z,2.750
2022-08-25T03:32:25.074Z,2.400
2022-08-25T03:33:29.239Z,2.600
2022-08-25T03:34:21.880Z,2.400
2022-08-25T03:35:32.609Z,2.800
2022-08-25T03:36:29.001Z,2.800
2022-08-25T03:37:25.412Z,2.600
2022-08-25T03:38:19.494Z,2.700
2022-08-25T03:39:25.510Z,2.500
2022-08-25T03:40:25.923Z,2.600
2022-08-25T03:41:28.022Z,2.600
2022-08-25T03:42:43.299Z,2.400
2022-08-25T03:43:21.155Z,2.700
2022-08-25T03:44:23.944Z,2.450
2022-08-25T03:45:21.003Z,2.300
2022-08-25T03:46:22.683Z,2.350
2022-08-25T03:47:27.279Z,2.400
2022-08-25T03:48:22.090Z,2.600
2022-08-25T03:49:20.937Z,2.300
2022-08-25T03:50:23.611Z,2.400
2022-08-25T03:51:24.702Z,2.600
2022-08-25T03:52:22.149Z,2.650
2022-08-25T03:53:26.170Z,2.650
2022-08-25T03:54:25.745Z,2.500
2022-08-25T03:55:22.018Z,2.650
2022-08-25T03:56:35.265Z,2.750
2022-08-25T03:57:29.102Z,2.600
2022-08-25T03:58:25.504Z,2.950
2022-08-25T03:59:20.181Z,2.550
2022-08-25T04:00:36.354Z,2.600
2022-08-25T04:01:27.106Z,2.850
2022-08-25T04:02:21.889Z,2.500
2022-08-25T04:03:31.529Z,2.750
2022-08-25T04:04:31.855Z,2.850
2022-08-25T04:05:23.741Z,2.500
2022-08-25T04:06:24.674Z,2.350
2022-08-25T04:07:29.650Z,2.650
2022-08-25T04:08:28.613Z,2.400
2022-08-25T04:09:23.785Z,2.750
2022-08-25T04:10:31.564Z,2.650
2022-08-25T04:11:30.366Z,2.900
2022-08-25T04:12:20.297Z,2.800
2022-08-25T04:13:21.227Z,3.000
2022-08-25T04:14:33.418Z,2.900
2022-08-25T04:15:28.564Z,2.600
2022-08-25T04:16:26.139Z,2.850
2022-08-25T04:17:32.606Z,2.600
2022-08-25T04:18:29.276Z,3.000
2022-08-25T04:19:27.422Z,2.800
2022-08-25T04:20:24.035Z,2.800
2022-08-25T04:21:32.521Z,2.800
2022-08-25T04:22:26.551Z,2.800
2022-08-25T04:23:28.346Z,2.800
2022-08-25T04:24:21.856Z,2.750
2022-08-25T04:25:30.183Z,2.800
2022-08-25T04:26:26.383Z,2.600
2022-08-25T04:27:19.744Z,2.400
2022-08-25T04:28:31.558Z,2.600
2022-08-25T04:29:25.658Z,2.400
2022-08-25T04:30:21.767Z,2.700
2022-08-25T04:31:26.051Z,2.800
2022-08-25T04:32:27.872Z,3.350
2022-08-25T04:33:24.842Z,3.400
2022-08-25T04:34:31.177Z,3.300
2022-08-25T04:35:47.095Z,3.100
2022-08-25T04:36:28.012Z,2.900
2022-08-25T04:37:24.842Z,3.200
2022-08-25T04:38:33.838Z,3.350
2022-08-25T04:39:25.135Z,2.800
2022-08-25T04:40:28.940Z,3.150
2022-08-25T04:41:21.740Z,3.350
2022-08-25T04:42:29.791Z,3.400
2022-08-25T04:43:28.508Z,3.200
2022-08-25T04:44:23.749Z,3.200
2022-08-25T04:45:34.999Z,3.200
2022-08-25T04:46:29.172Z,3.600
2022-08-25T04:47:20.207Z,3.300
2022-08-25T04:48:22.976Z,3.350
2022-08-25T04:49:31.043Z,3.250
2022-08-25T04:50:26.914Z,3.400
2022-08-25T04:51:28.058Z,3.400
2022-08-25T04:52:31.791Z,3.300
2022-08-25T04:53:31.479Z,3.200
2022-08-25T04:54:26.352Z,3.250
2022-08-25T04:55:19.891Z,2.600
2022-08-25T04:56:31.220Z,2.900
2022-08-25T04:57:27.982Z,2.650
2022-08-25T04:58:23.627Z,2.900
2022-08-25T04:59:24.040Z,3.000
2022-08-25T05:00:29.532Z,2.600
2022-08-25T05:01:28.718Z,2.400
2022-08-25T05:02:25.314Z,2.750
2022-08-25T05:03:29.744Z,3.150
2022-08-25T05:04:28.534Z,3.400
2022-08-25T05:05:23.538Z,3.600
2022-08-25T05:06:22.256Z,3.300
2022-08-25T05:07:29.301Z,3.400
2022-08-25T05:08:25.150Z,3.450
2022-08-25T05:09:22.034Z,3.000
2022-08-25T05:10:29.659Z,3.050
2022-08-25T05:11:30.187Z,2.950
2022-08-25T05:12:23.442Z,2.800
2022-08-25T05:13:25.240Z,2.700
2022-08-25T05:14:30.288Z,3.100
2022-08-25T05:15:23.801Z,3.000
2022-08-25T05:16:25.102Z,3.050
2022-08-25T05:17:24.797Z,3.200
2022-08-25T05:18:25.872Z,3.600
2022-08-25T05:19:22.266Z,3.450
2022-08-25T05:20:28.471Z,3.300
2022-08-25T05:21:28.898Z,3.450
2022-08-25T05:22:23.585Z,3.400
2022-08-25T05:23:21.374Z,3.400
2022-08-25T05:24:29.628Z,3.400
2022-08-25T05:25:21.025Z,3.600
2022-08-25T05:26:21.761Z,3.200
2022-08-25T05:27:31.983Z,3.450
2022-08-25T05:28:27.543Z,3.100
2022-08-25T05:29:25.273Z,3.250
2022-08-25T05:30:19.772Z,3.500
2022-08-25T05:31:32.313Z,3.100
2022-08-25T05:32:25.787Z,3.450
2022-08-25T05:33:22.414Z,3.500
2022-08-25T05:34:39.389Z,3.500
2022-08-25T05:35:21.298Z,3.400
2022-08-25T05:36:24.258Z,3.900
2022-08-25T05:37:23.935Z,3.500
2022-08-25T05:38:36.444Z,3.750
2022-08-25T05:39:28.022Z,3.700
2022-08-25T05:40:22.740Z,3.550
2022-08-25T05:41:36.716Z,3.600
2022-08-25T05:42:26.298Z,3.650
2022-08-25T05:43:23.675Z,3.200
2022-08-25T05:44:21.709Z,3.400
2022-08-25T05:45:34.823Z,3.900
2022-08-25T05:46:19.496Z,3.200
2022-08-25T05:47:27.909Z,3.450
2022-08-25T05:48:36.524Z,3.400
2022-08-25T05:49:27.869Z,3.500
2022-08-25T05:50:26.153Z,3.500
2022-08-25T05:51:20.190Z,3.700
2022-08-25T05:52:29.891Z,3.200
2022-08-25T05:53:22.324Z,3.600
2022-08-25T05:54:22.361Z,3.600
2022-08-25T05:55:23.665Z,3.700
2022-08-25T05:56:34.435Z,3.600
2022-08-25T05:57:23.977Z,3.350
2022-08-25T05:58:21.758Z,3.800
2022-08-25T05:59:31.978Z,3.350
2022-08-25T06:00:25.888Z,3.300
2022-08-25T06:01:24.024Z,3.600
2022-08-25T06:02:26.703Z,3.400
2022-08-25T06:03:21.478Z,3.300
2022-08-25T06:04:24.671Z,3.500
2022-08-25T06:05:20.139Z,3.700
2022-08-25T06:06:30.058Z,3.500
2022-08-25T06:07:33.192Z,3.500
2022-08-25T06:08:28.365Z,3.800
2022-08-25T06:09:27.466Z,3.900
2022-08-25T06:10:22.082Z,3.900
2022-08-25T06:11:23.954Z,3.600
2022-08-25T06:12:20.022Z,3.900
2022-08-25T06:13:31.211Z,3.650
2022-08-25T06:14:25.780Z,3.600
2022-08-25T06:15:24.436Z,4.050
2022-08-25T06:16:36.435Z,4.250
2022-08-25T06:17:28.574Z,4.200
2022-08-25T06:18:28.865Z,4.150
2022-08-25T06:19:19.899Z,4.050
2022-08-25T06:20:29.613Z,4.150
2022-08-25T06:21:27.274Z,4.100
2022-08-25T06:22:24.302Z,3.800
2022-08-25T06:23:36.986Z,3.950
2022-08-25T06:24:28.713Z,4.300
2022-08-25T06:25:25.468Z,4.200
2022-08-25T06:26:21.158Z,4.400
2022-08-25T06:27:32.192Z,4.250
2022-08-25T06:28:28.074Z,4.150
2022-08-25T06:29:29.118Z,4.300
2022-08-25T06:30:34.721Z,4.000
2022-08-25T06:31:29.681Z,4.000
2022-08-25T06:32:30.277Z,3.850
2022-08-25T06:33:22.339Z,4.100
2022-08-25T06:34:36.931Z,3.600
2022-08-25T06:35:43.407Z,3.950
2022-08-25T06:36:22.852Z,3.300
2022-08-25T06:37:35.099Z,4.100
2022-08-25T06:38:27.672Z,3.800
2022-08-25T06:39:28.005Z,3.550
2022-08-25T06:40:19.912Z,3.600
2022-08-25T06:41:20.968Z,3.750
2022-08-25T06:42:26.225Z,3.700
2022-08-25T06:43:24.716Z,3.300
2022-08-25T06:44:33.841Z,3.400
2022-08-25T06:45:28.985Z,3.800
2022-08-25T06:46:35.780Z,3.500
2022-08-25T06:47:20.150Z,3.500
2022-08-25T06:48:22.202Z,3.750
2022-08-25T06:49:27.125Z,3.500
2022-08-25T06:50:21.965Z,3.450
2022-08-25T06:51:22.692Z,3.400
2022-08-25T06:52:33.343Z,3.600
2022-08-25T06:53:25.528Z,3.700
2022-08-25T06:54:22.650Z,3.700
2022-08-25T06:55:25.508Z,3.050
2022-08-25T06:56:20.762Z,3.500
2022-08-25T06:57:21.748Z,3.600
2022-08-25T06:58:24.657Z,3.450
2022-08-25T06:59:32.592Z,3.650
2022-08-25T07:00:21.956Z,3.300
2022-08-25T07:01:22.222Z,3.600
2022-08-25T07:02:34.900Z,3.500
2022-08-25T07:03:28.967Z,3.400
2022-08-25T07:04:24.063Z,3.500
2022-08-25T07:05:45.186Z,3.300
2022-08-25T07:06:29.293Z,3.100
2022-08-25T07:07:24.725Z,3.450
2022-08-25T07:08:21.061Z,3.300
2022-08-25T07:09:21.465Z,3.050
2022-08-25T07:10:25.941Z,3.300
2022-08-25T07:11:22.509Z,3.800
2022-08-25T07:12:35.524Z,3.500
2022-08-25T07:13:27.883Z,3.250
2022-08-25T07:14:25.373Z,3.300
2022-08-25T07:15:21.090Z,3.300
2022-08-25T07:16:25.839Z,3.400
2022-08-25T07:17:22.978Z,3.300
2022-08-25T07:18:21.994Z,3.400
2022-08-25T07:19:32.241Z,3.450
2022-08-25T07:20:20.644Z,3.000
2022-08-25T07:20:26.683Z,3.000
2022-08-25T07:21:27.847Z,3.100
2022-08-25T07:22:20.192Z,3.400
2022-08-25T07:23:30.810Z,3.500
2022-08-25T07:24:27.048Z,3.200
2022-08-25T07:25:22.060Z,3.250
2022-08-25T07:26:41.368Z,3.100
2022-08-25T07:27:22.640Z,3.500
2022-08-25T07:28:22.177Z,3.300
2022-08-25T07:29:32.123Z,2.800
2022-08-25T07:30:33.244Z,3.100
2022-08-25T07:32:31.035Z,3.200
2022-08-25T07:32:31.212Z,3.200
2022-08-25T07:33:22.630Z,3.150
2022-08-25T07:34:22.804Z,3.200
2022-08-25T07:35:24.175Z,3.100
2022-08-25T07:36:20.897Z,3.200
2022-08-25T07:37:47.822Z,3.200
2022-08-25T07:38:24.823Z,3.150
2022-08-25T07:39:24.303Z,3.000
2022-08-25T07:40:27.052Z,2.900
2022-08-25T07:41:19.786Z,3.000
2022-08-25T07:42:26.133Z,3.000
2022-08-25T07:43:22.789Z,2.850
2022-08-25T07:44:30.013Z,3.000
2022-08-25T07:45:26.951Z,3.150
2022-08-25T07:46:21.882Z,3.100
2022-08-25T07:47:33.951Z,3.100
2022-08-25T07:48:25.095Z,3.100
2022-08-25T07:49:23.567Z,2.850
2022-08-25T07:50:19.697Z,3.300
2022-08-25T07:51:29.765Z,3.100
2022-08-25T07:52:26.762Z,2.750
2022-08-25T07:53:24.219Z,2.500
2022-08-25T07:54:39.322Z,2.900
2022-08-25T07:55:28.220Z,3.000
2022-08-25T07:56:28.476Z,2.900
2022-08-25T07:57:21.820Z,3.100
2022-08-25T07:58:31.941Z,3.100
2022-08-25T07:59:26.001Z,2.900
2022-08-25T08:00:21.839Z,3.100
2022-08-25T08:01:33.807Z,3.000
2022-08-25T08:02:24.802Z,3.000
2022-08-25T08:03:44.670Z,3.000
2022-08-25T08:04:22.350Z,3.000
2022-08-25T08:05:31.965Z,2.850
2022-08-25T08:06:26.093Z,2.900
2022-08-25T08:07:21.630Z,2.500
2022-08-25T08:08:30.540Z,2.700
2022-08-25T08:09:27.822Z,2.650
2022-08-25T08:11:04.519Z,2.800
2022-08-25T08:11:23.982Z,2.950
2022-08-25T08:12:22.750Z,2.650
2022-08-25T08:13:23.601Z,2.600
2022-08-25T08:14:22.589Z,2.750
2022-08-25T08:15:34.332Z,2.900
2022-08-25T08:16:33.667Z,2.650
2022-08-25T08:17:24.330Z,2.900
2022-08-25T08:18:20.403Z,2.400
2022-08-25T08:19:25.506Z,2.650
2022-08-25T08:20:27.194Z,2.500
2022-08-25T08:21:21.959Z,2.700
2022-08-25T08:22:31.751Z,2.700
2022-08-25T08:23:29.389Z,2.800
2022-08-25T08:24:43.997Z,2.700
2022-08-25T08:25:27.311Z,2.650
2022-08-25T08:26:36.230Z,2.600
2022-08-25T08:27:21.686Z,2.800
2022-08-25T08:28:21.985Z,2.900
2022-08-25T08:29:34.324Z,2.550
2022-08-25T08:30:26.424Z,2.500
2022-08-25T08:31:28.333Z,2.450
2022-08-25T08:32:25.200Z,2.700
2022-08-25T08:33:27.688Z,2.700
2022-08-25T08:34:24.846Z,2.600
2022-08-25T08:35:25.459Z,2.600
2022-08-25T08:36:29.646Z,2.550
2022-08-25T08:37:28.919Z,2.300
2022-08-25T08:38:27.183Z,2.600
2022-08-25T08:39:21.934Z,2.700
2022-08-25T08:40:33.929Z,2.400
2022-08-25T08:41:22.971Z,2.600
2022-08-25T08:42:25.795Z,2.600
2022-08-25T08:43:22.838Z,2.450
2022-08-25T08:44:30.524Z,2.500
2022-08-25T08:45:24.005Z,2.450
2022-08-25T08:46:20.118Z,2.600
2022-08-25T08:47:28.133Z,2.550
2022-08-25T08:48:32.703Z,2.250
2022-08-25T08:49:26.785Z,2.300
2022-08-25T08:50:24.915Z,2.500
2022-08-25T08:51:33.094Z,2.400
2022-08-25T08:52:23.757Z,2.400
2022-08-25T08:53:24.711Z,2.300
2022-08-25T08:54:21.005Z,2.400
2022-08-25T08:55:26.375Z,2.400
2022-08-25T08:56:30.668Z,2.350
2022-08-25T08:57:24.157Z,2.650
2022-08-25T08:58:26.467Z,2.100
2022-08-25T08:59:29.957Z,2.400
2022-08-25T09:00:20.028Z,2.300
2022-08-25T09:01:25.801Z,2.600
2022-08-25T09:02:49.853Z,2.400
2022-08-25T09:03:21.725Z,2.400
2022-08-25T09:04:21.473Z,2.250
2022-08-25T09:05:22.548Z,2.300
2022-08-25T09:06:23.551Z,2.150
2022-08-25T09:07:21.552Z,2.100
2022-08-25T09:08:26.880Z,2.250
2022-08-25T09:09:26.997Z,2.250
2022-08-25T09:10:23.496Z,2.200
2022-08-25T09:11:26.540Z,2.250
2022-08-25T09:12:21.259Z,2.200
2022-08-25T09:13:26.158Z,2.350
2022-08-25T09:14:20.385Z,2.400
2022-08-25T09:15:25.636Z,2.250
2022-08-25T09:16:31.760Z,2.250
2022-08-25T09:17:23.283Z,2.100
2022-08-25T09:18:31.891Z,2.200
2022-08-25T09:19:23.847Z,2.150
2022-08-25T09:20:24.022Z,2.500
2022-08-25T09:21:19.780Z,2.200
2022-08-25T09:22:35.832Z,2.250
2022-08-25T09:23:28.094Z,2.300
2022-08-25T09:24:22.210Z,2.250
2022-08-25T09:25:52.374Z,2.000
2022-08-25T09:26:20.740Z,2.300
2022-08-25T09:27:32.803Z,2.500
2022-08-25T09:28:22.212Z,2.250
2022-08-25T09:29:29.829Z,2.300
2022-08-25T09:30:24.923Z,2.000
2022-08-25T09:31:29.196Z,2.200
2022-08-25T09:32:25.775Z,2.200
2022-08-25T09:33:33.656Z,2.050
2022-08-25T09:34:24.727Z,2.100
2022-08-25T09:35:20.023Z,2.050
2022-08-25T09:36:33.135Z,1.950
2022-08-25T09:37:25.885Z,2.100
2022-08-25T09:38:22.064Z,2.050
2022-08-25T09:39:31.813Z,2.100
2022-08-25T09:40:29.578Z,2.000
2022-08-25T09:41:19.443Z,2.100
2022-08-25T09:42:23.847Z,2.200
2022-08-25T09:43:25.630Z,1.950
2022-08-25T09:44:28.124Z,2.100
2022-08-25T09:45:25.411Z,2.150
2022-08-25T09:46:39.356Z,2.000
2022-08-25T09:47:30.140Z,2.100
2022-08-25T09:48:23.893Z,2.000
2022-08-25T09:49:23.556Z,2.300
2022-08-25T09:50:25.000Z,2.250
2022-08-25T09:51:26.052Z,2.300
2022-08-25T09:52:21.914Z,2.200
2022-08-25T09:53:34.584Z,2.200
2022-08-25T09:54:21.222Z,2.000
2022-08-25T09:55:28.332Z,2.050
2022-08-25T09:56:20.219Z,2.200
2022-08-25T09:57:21.628Z,2.200
2022-08-25T09:58:23.520Z,2.100
2022-08-25T09:59:34.094Z,2.200
2022-08-25T10:00:24.782Z,1.800
2022-08-25T10:01:38.395Z,2.000
2022-08-25T10:02:26.410Z,2.100
2022-08-25T10:03:25.344Z,1.950
2022-08-25T10:04:25.388Z,1.950
2022-08-25T10:05:28.670Z,1.900
2022-08-25T10:06:23.463Z,2.050
2022-08-25T10:07:32.158Z,1.800
2022-08-25T10:08:31.724Z,2.100
2022-08-25T10:09:26.348Z,2.050
2022-08-25T10:10:19.930Z,2.100
2022-08-25T10:11:24.727Z,1.750
2022-08-25T10:12:27.575Z,2.000
2022-08-25T10:13:26.762Z,1.900
2022-08-25T10:14:38.090Z,1.900
2022-08-25T10:15:29.970Z,1.800
2022-08-25T10:16:24.785Z,2.100
2022-08-25T10:17:22.499Z,1.950
2022-08-25T10:18:30.103Z,1.900
2022-08-25T10:19:27.848Z,2.000
2022-08-25T10:20:26.424Z,1.900
2022-08-25T10:21:22.210Z,1.950
2022-08-25T10:22:28.013Z,2.000
2022-08-25T10:23:26.029Z,2.100
2022-08-25T10:24:21.125Z,1.900
2022-08-25T10:25:30.939Z,1.800
2022-08-25T10:26:27.471Z,2.000
2022-08-25T10:27:25.038Z,1.900
2022-08-25T10:28:19.455Z,2.050
2022-08-25T10:29:28.189Z,2.200
2022-08-25T10:30:24.255Z,2.100
2022-08-25T10:31:23.346Z,2.150
2022-08-25T10:32:30.799Z,2.050
2022-08-25T10:33:25.979Z,2.000
2022-08-25T10:34:22.925Z,2.000
2022-08-25T10:35:23.048Z,1.900
2022-08-25T10:36:22.185Z,2.000
2022-08-25T10:37:24.116Z,1.900
2022-08-25T10:38:21.702Z,1.800
2022-08-25T10:39:34.601Z,2.050
2022-08-25T10:40:27.954Z,2.000
2022-08-25T10:41:22.066Z,1.900
2022-08-25T10:42:25.944Z,2.100
2022-08-25T10:43:27.941Z,1.950
2022-08-25T10:44:24.384Z,1.900
2022-08-25T10:45:21.982Z,1.850
2022-08-25T10:46:20.514Z,2.000
2022-08-25T10:47:29.288Z,1.900
2022-08-25T10:48:23.111Z,1.900
2022-08-25T10:49:34.258Z,1.850
2022-08-25T10:50:21.977Z,1.700
2022-08-25T10:51:25.901Z,2.150
2022-08-25T10:52:21.479Z,2.000
2022-08-25T10:53:24.504Z,1.900
2022-08-25T10:54:26.058Z,2.050
2022-08-25T10:55:22.116Z,2.050
2022-08-25T10:56:23.363Z,1.900
2022-08-25T10:57:27.804Z,1.850
2022-08-25T10:58:23.881Z,2.100
2022-08-25T10:59:21.760Z,2.100
2022-08-25T11:00:31.787Z,2.050
2022-08-25T11:01:32.959Z,1.900
2022-08-25T11:02:23.421Z,2.000
2022-08-25T11:03:36.392Z,2.050
2022-08-25T11:04:27.336Z,2.000
2022-08-25T11:05:24.666Z,2.000
2022-08-25T11:06:20.034Z,1.800
2022-08-25T11:07:20.621Z,1.800
2022-08-25T11:08:25.835Z,2.000
2022-08-25T11:09:22.627Z,1.950
2022-08-25T11:10:35.540Z,2.100
2022-08-25T11:11:25.624Z,1.750
2022-08-25T11:12:27.930Z,1.950
2022-08-25T11:13:20.333Z,2.050
2022-08-25T11:14:22.283Z,1.950
2022-08-25T11:15:21.144Z,1.700
2022-08-25T11:16:23.712Z,1.850
2022-08-25T11:17:33.213Z,2.050
2022-08-25T11:18:28.162Z,1.800
2022-08-25T11:19:25.773Z,2.050
2022-08-25T11:20:27.005Z,1.900
2022-08-25T11:21:27.988Z,1.900
2022-08-25T11:22:22.555Z,1.900
2022-08-25T11:23:23.875Z,2.000
2022-08-25T11:24:24.489Z,2.050
2022-08-25T11:25:31.266Z,2.000
2022-08-25T11:26:27.420Z,2.100
2022-08-25T11:27:21.786Z,1.900
2022-08-25T11:28:20.703Z,1.900
2022-08-25T11:29:27.015Z,1.900
2022-08-25T11:30:22.591Z,2.000
2022-08-25T11:31:35.245Z,1.800
2022-08-25T11:32:28.229Z,1.850
2022-08-25T11:33:22.448Z,1.800
2022-08-25T11:34:23.699Z,1.750
2022-08-25T11:35:24.228Z,1.800
2022-08-25T11:36:30.224Z,1.750
2022-08-25T11:37:23.040Z,1.700
2022-08-25T11:38:37.385Z,1.800
2022-08-25T11:39:34.418Z,1.700
2022-08-25T11:40:27.302Z,1.850
2022-08-25T11:41:24.216Z,1.650
2022-08-25T11:42:31.843Z,1.850
2022-08-25T11:43:24.556Z,1.800
2022-08-25T11:44:25.360Z,1.700
2022-08-25T11:45:33.045Z,1.650
2022-08-25T11:46:29.893Z,1.700
2022-08-25T11:47:28.284Z,1.850
2022-08-25T11:48:21.219Z,1.500
2022-08-25T11:49:35.793Z,1.700
2022-08-25T11:50:29.964Z,1.700
2022-08-25T11:51:23.137Z,1.750
2022-08-25T11:52:21.612Z,1.800
2022-08-25T11:53:30.353Z,1.800
2022-08-25T11:54:26.458Z,1.700
2022-08-25T11:55:23.121Z,1.550
2022-08-25T11:56:31.103Z,1.800
2022-08-25T11:57:26.853Z,1.800
2022-08-25T11:58:26.785Z,1.900
2022-08-25T11:59:25.689Z,1.850
2022-08-25T12:00:28.003Z,1.800
2022-08-25T12:01:24.021Z,1.750
2022-08-25T12:02:20.139Z,1.850
2022-08-25T12:03:31.830Z,1.600
2022-08-25T12:04:26.021Z,1.600
2022-08-25T12:05:23.601Z,1.750
2022-08-25T12:06:31.812Z,1.700
2022-08-25T12:07:24.042Z,1.500
2022-08-25T12:08:23.897Z,2.050
2022-08-25T12:09:20.038Z,1.900
2022-08-25T12:10:31.056Z,1.800
2022-08-25T12:11:28.469Z,1.800
2022-08-25T12:12:24.038Z,1.800
2022-08-25T12:13:25.145Z,1.850
2022-08-25T12:14:31.067Z,1.600
2022-08-25T12:15:23.462Z,1.700
2022-08-25T12:16:20.766Z,1.800
2022-08-25T12:17:30.228Z,2.000
2022-08-25T12:18:25.892Z,1.850
2022-08-25T12:19:22.856Z,1.800
2022-08-25T12:20:21.709Z,1.550
2022-08-25T12:21:21.002Z,1.500
2022-08-25T12:22:24.398Z,1.800
2022-08-25T12:23:24.190Z,1.650
2022-08-25T12:24:30.312Z,1.650
2022-08-25T12:25:27.722Z,2.100
2022-08-25T12:26:21.906Z,1.650
2022-08-25T12:27:23.288Z,1.700
2022-08-25T12:28:24.667Z,1.650
2022-08-25T12:29:23.829Z,1.700
2022-08-25T12:30:23.082Z,1.850
2022-08-25T12:31:32.734Z,1.550
2022-08-25T12:32:27.499Z,1.700
2022-08-25T12:33:21.789Z,1.500
2022-08-25T12:34:27.166Z,1.600
2022-08-25T12:35:29.537Z,1.600
2022-08-25T12:36:24.125Z,1.500
2022-08-25T12:37:22.262Z,1.500
2022-08-25T12:38:21.380Z,1.500
2022-08-25T12:39:28.136Z,1.700
2022-08-25T12:40:22.324Z,1.600
2022-08-25T12:41:33.808Z,1.900
2022-08-25T12:42:29.435Z,1.800
2022-08-25T12:43:33.524Z,1.750
2022-08-25T12:44:21.000Z,1.600
2022-08-25T12:45:25.484Z,1.600
2022-08-25T12:46:28.965Z,1.700
2022-08-25T12:47:27.826Z,1.600
2022-08-25T12:48:32.496Z,1.600
2022-08-25T12:49:19.787Z,1.600
2022-08-25T12:50:26.538Z,1.700
2022-08-25T12:51:26.272Z,1.650
2022-08-25T12:52:32.002Z,1.750
2022-08-25T12:53:20.025Z,1.500
2022-08-25T12:54:23.224Z,1.700
2022-08-25T12:55:31.559Z,1.900
2022-08-25T12:56:23.547Z,1.650
2022-08-25T12:57:29.668Z,1.550
2022-08-25T12:58:20.542Z,1.800
2022-08-25T12:59:34.212Z,1.600
2022-08-25T13:00:32.441Z,1.800
2022-08-25T13:01:32.883Z,1.800
2022-08-25T13:02:34.578Z,1.650
2022-08-25T13:03:29.004Z,1.650
2022-08-25T13:04:28.993Z,1.500
2022-08-25T13:05:20.361Z,1.600
2022-08-25T13:06:24.127Z,1.400
2022-08-25T13:07:20.256Z,1.400
2022-08-25T13:08:22.130Z,1.600
2022-08-25T13:09:31.933Z,1.600
2022-08-25T13:10:30.063Z,1.700
2022-08-25T13:11:24.280Z,1.750
2022-08-25T13:12:22.438Z,1.600
2022-08-25T13:13:29.807Z,1.800
2022-08-25T13:14:26.501Z,1.600
2022-08-25T13:15:22.091Z,1.700
2022-08-25T13:16:34.101Z,1.650
2022-08-25T13:17:27.940Z,1.600
2022-08-25T13:18:24.523Z,1.750
2022-08-25T13:19:20.055Z,1.600
2022-08-25T13:20:33.812Z,1.500
2022-08-25T13:21:26.776Z,1.750
2022-08-25T13:22:22.965Z,1.500
2022-08-25T13:23:25.832Z,1.550
2022-08-25T13:24:28.633Z,1.700
2022-08-25T13:25:27.127Z,1.700
2022-08-25T13:26:21.920Z,1.800
2022-08-25T13:27:31.869Z,1.600
2022-08-25T13:28:32.243Z,2.000
2022-08-25T13:29:24.438Z,1.650
2022-08-25T13:30:26.486Z,2.000
2022-08-25T13:31:20.767Z,1.850
2022-08-25T13:32:24.598Z,1.700
2022-08-25T13:33:20.356Z,1.700
2022-08-25T13:34:34.889Z,1.700
2022-08-25T13:35:30.321Z,1.700
2022-08-25T13:36:23.104Z,1.550
2022-08-25T13:37:32.448Z,1.550
2022-08-25T13:38:25.496Z,1.600
2022-08-25T13:39:52.690Z,1.550
2022-08-25T13:40:24.724Z,1.500
2022-08-25T13:41:34.042Z,1.550
2022-08-25T13:42:28.987Z,1.600
2022-08-25T13:43:27.635Z,1.500
2022-08-25T13:44:24.076Z,1.700
2022-08-25T13:45:31.870Z,1.700
2022-08-25T13:46:23.329Z,1.850
2022-08-25T13:47:24.020Z,1.750
2022-08-25T13:48:33.436Z,1.600
2022-08-25T13:49:27.442Z,1.800
2022-08-25T13:50:22.646Z,1.700
2022-08-25T13:51:31.042Z,1.750
2022-08-25T13:52:29.288Z,1.600
2022-08-25T13:53:25.367Z,1.700
2022-08-25T13:54:20.421Z,1.850
2022-08-25T13:55:31.126Z,1.600
2022-08-25T13:56:32.867Z,1.550
2022-08-25T13:57:22.439Z,1.600
2022-08-25T13:58:38.881Z,1.650
2022-08-25T13:59:24.083Z,1.700
2022-08-25T14:00:31.756Z,1.500
2022-08-25T14:01:49.065Z,1.700
2022-08-25T14:02:33.055Z,1.600
2022-08-25T14:03:30.141Z,1.500
2022-08-25T14:04:27.581Z,1.550
2022-08-25T14:05:36.118Z,1.650
2022-08-25T14:06:29.947Z,1.550
2022-08-25T14:07:22.176Z,1.600
2022-08-25T14:08:25.803Z,1.800
2022-08-25T14:09:30.104Z,1.700
2022-08-25T14:10:28.012Z,1.400